Time;durP1;ratioP1;P1;durP2;ratioP2;P2;SDS_P1;SDS_P2;PMS_P1;PMS_P2;Temp;Humidity;BMP_temperature;BMP_pressure;BME280_temperature;BME280_humidity;BME280_pressure;Samples;Min_cycle;Max_cycle;Signal;HPM_P1;HPM_P2
2022/05/31 00:02:03;;;;;;;16.92;15.27;;;;;;;14.56;nan;99486.75;4962715;28;20118;-75
2022/05/31 00:04:31;;;;;;;21.08;16.05;;;;;;;14.57;nan;99486.59;4960299;28;20484;-75
2022/05/31 00:06:57;;;;;;;20.48;16.52;;;;;;;14.58;nan;99492.75;4962529;28;20431;-75
2022/05/31 00:09:23;;;;;;;18.95;17.05;;;;;;;14.56;nan;99489.41;4961315;28;20185;-76
2022/05/31 00:11:48;;;;;;;19.55;17.48;;;;;;;14.49;nan;99491.13;4961145;28;20387;-75
2022/05/31 00:14:15;;;;;;;18.85;16.85;;;;;;;14.42;nan;99490.13;4976969;28;20062;-76
2022/05/31 00:16:41;;;;;;;18.45;16.48;;;;;;;14.40;nan;99495.59;4958951;28;20871;-74
2022/05/31 00:19:08;;;;;;;19.80;16.33;;;;;;;14.43;nan;99497.09;4959860;28;20043;-75
2022/05/31 00:21:42;;;;;;;18.77;16.35;;;;;;;14.38;nan;99502.88;4962989;28;20027;-76
2022/05/31 00:24:11;;;;;;;18.10;16.20;;;;;;;14.31;nan;99502.69;4959782;28;20055;-76
2022/05/31 00:26:38;;;;;;;19.05;16.48;;;;;;;14.25;nan;99506.06;4959304;28;20514;-75
2022/05/31 00:29:05;;;;;;;20.60;17.70;;;;;;;14.16;nan;99491.13;4958148;28;20023;-76
2022/05/31 00:31:31;;;;;;;20.05;17.10;;;;;;;14.11;nan;99485.47;4963196;28;20035;-76
2022/05/31 00:33:56;;;;;;;24.30;17.70;;;;;;;14.08;nan;99488.44;4962281;28;20105;-76
2022/05/31 00:36:22;;;;;;;23.45;18.08;;;;;;;14.01;nan;99491.97;4963558;28;20039;-77
2022/05/31 00:38:48;;;;;;;20.75;18.10;;;;;;;14.00;nan;99491.13;4963058;28;20057;-75
2022/05/31 00:41:23;;;;;;;20.98;18.75;;;;;;;13.88;nan;99487.97;4978096;28;20032;-75
2022/05/31 00:43:50;;;;;;;22.30;17.85;;;;;;;13.84;nan;99501.75;4952808;28;20027;-77
2022/05/31 00:46:16;;;;;;;23.23;18.40;;;;;;;13.88;nan;99492.44;4965154;28;20174;-76
2022/05/31 00:48:59;;;;;;;21.60;17.52;;;;;;;13.93;nan;99490.13;4963325;28;20519;-77
2022/05/31 00:51:36;;;;;;;20.48;17.15;;;;;;;14.01;nan;99498.09;4963895;28;20069;-76
2022/05/31 00:54:07;;;;;;;21.17;18.80;;;;;;;14.04;nan;99491.63;4964763;28;20039;-77
2022/05/31 00:56:33;;;;;;;;;;;;;;;14.06;nan;99495.78;4962032;28;20344;-77
2022/05/31 00:59:05;;;;;;;22.50;19.38;;;;;;;14.05;nan;99493.28;4977215;28;20025;-77
2022/05/31 01:01:35;;;;;;;23.25;18.85;;;;;;;13.82;nan;99501.91;4960468;28;20035;-76
2022/05/31 01:04:01;;;;;;;21.05;18.45;;;;;;;13.92;nan;99502.56;4962367;28;20498;-78
2022/05/31 01:06:27;;;;;;;23.30;20.80;;;;;;;13.87;nan;99509.34;4963288;28;20039;-77
2022/05/31 01:08:55;;;;;;;23.88;20.48;;;;;;;13.92;nan;99501.72;4962892;28;20062;-77
2022/05/31 01:11:38;;;;;;;21.55;19.15;;;;;;;13.90;nan;99504.53;4966266;28;20033;-78
2022/05/31 01:14:11;;;;;;;20.13;18.02;;;;;;;13.94;nan;99513.00;4962651;28;20047;-77
2022/05/31 01:16:58;;;;;;;21.92;19.52;;;;;;;13.95;nan;99512.03;4976501;28;20506;-77
2022/05/31 01:19:56;;;;;;;21.95;19.02;;;;;;;13.97;nan;99512.66;4974866;28;20054;-78
2022/05/31 01:22:50;;;;;;;21.02;18.80;;;;;;;13.90;nan;99517.00;4962606;28;20435;-77
2022/05/31 01:25:21;;;;;;;21.08;17.92;;;;;;;13.72;nan;99518.97;4975479;28;20745;-77
2022/05/31 01:28:09;;;;;;;25.17;20.05;;;;;;;13.73;nan;99515.28;4965726;28;20042;-75
2022/05/31 01:30:41;;;;;;;20.45;18.27;;;;;;;13.74;nan;99516.97;4962127;28;20468;-77
2022/05/31 01:33:13;;;;;;;20.55;18.13;;;;;;;13.73;nan;99515.28;4977179;28;20035;-77
2022/05/31 01:35:39;;;;;;;20.15;18.15;;;;;;;13.71;nan;99517.31;4976881;28;20600;-77
2022/05/31 01:38:12;;;;;;;23.17;17.38;;;;;;;13.75;nan;99513.31;4964442;28;20027;-77
2022/05/31 01:40:52;;;;;;;21.67;18.33;;;;;;;13.80;nan;99521.59;4977896;28;20085;-77
2022/05/31 01:43:18;;;;;;;20.73;18.05;;;;;;;13.78;nan;99518.31;4963239;28;20039;-76
2022/05/31 01:45:54;;;;;;;22.27;17.63;;;;;;;13.66;nan;99527.56;4962914;28;20072;-76
2022/05/31 01:48:21;;;;;;;19.23;17.33;;;;;;;13.58;nan;99527.53;4963256;28;20054;-77
2022/05/31 01:50:47;;;;;;;20.30;17.85;;;;;;;13.50;nan;99534.47;4964132;28;20035;-77
2022/05/31 01:53:15;;;;;;;18.77;16.98;;;;;;;13.49;nan;99530.16;4962297;28;20035;-78
2022/05/31 01:55:43;;;;;;;19.63;17.60;;;;;;;13.52;nan;99521.06;4963124;28;20027;-75
2022/05/31 01:58:18;;;;;;;19.73;17.45;;;;;;;13.53;nan;99517.44;4960430;28;20428;-78
2022/05/31 02:00:44;;;;;;;19.98;17.98;;;;;;;13.53;nan;99528.88;4960932;28;20082;-78
2022/05/31 02:03:13;;;;;;;22.02;17.10;;;;;;;13.52;nan;99531.69;4964380;28;20122;-77
2022/05/31 02:05:52;;;;;;;17.40;15.80;;;;;;;13.49;nan;99524.88;4959932;28;20050;-76
2022/05/31 02:08:22;;;;;;;18.98;16.92;;;;;;;13.51;nan;99528.19;4967873;28;20039;-75
2022/05/31 02:10:49;;;;;;;21.10;17.85;;;;;;;13.57;nan;99525.88;4977719;28;20054;-73
2022/05/31 02:13:16;;;;;;;21.92;17.60;;;;;;;13.64;nan;99532.19;4960883;28;20061;-78
2022/05/31 02:16:00;;;;;;;21.92;19.55;;;;;;;13.68;nan;99528.22;4960454;28;20392;-77
2022/05/31 02:21:35;;;;;;;19.45;17.40;;;;;;;13.83;nan;99531.91;4961477;28;20046;-77
2022/05/31 02:24:13;;;;;;;20.95;18.48;;;;;;;13.88;nan;99524.28;4979027;28;20057;-77
2022/05/31 02:26:41;;;;;;;20.50;18.40;;;;;;;13.91;nan;99529.25;4975945;28;20771;-76
2022/05/31 02:29:08;;;;;;;21.00;18.80;;;;;;;13.92;nan;99530.91;4963201;28;20068;-77
2022/05/31 02:31:34;;;;;;;21.77;18.73;;;;;;;13.93;nan;99535.22;4959812;28;20038;-77
2022/05/31 02:34:00;;;;;;;21.02;18.60;;;;;;;13.98;nan;99534.72;4963456;28;20085;-77
2022/05/31 02:36:26;;;;;;;23.10;20.05;;;;;;;13.99;nan;99531.91;4960625;28;20516;-77
2022/05/31 02:38:53;;;;;;;22.58;20.27;;;;;;;14.00;nan;99543.34;4961125;28;20039;-77
2022/05/31 02:41:22;;;;;;;24.10;20.83;;;;;;;13.94;nan;99540.38;4991533;28;20058;-77
2022/05/31 02:43:48;;;;;;;25.15;22.45;;;;;;;13.76;nan;99547.63;4960862;28;20026;-77
2022/05/31 02:46:14;;;;;;;25.27;22.58;;;;;;;13.63;nan;99536.66;4962172;28;20042;-77
2022/05/31 02:48:40;;;;;;;23.20;20.65;;;;;;;13.62;nan;99539.47;4960540;28;20031;-77
2022/05/31 02:51:05;;;;;;;25.17;21.13;;;;;;;13.46;nan;99540.28;4962686;28;20027;-76
2022/05/31 02:53:31;;;;;;;23.90;21.45;;;;;;;13.59;nan;99545.13;4958744;28;20039;-77
2022/05/31 02:55:57;;;;;;;23.33;20.88;;;;;;;13.64;nan;99542.81;4977707;28;20392;-77
2022/05/31 02:58:41;;;;;;;24.20;20.60;;;;;;;13.65;nan;99534.69;4964782;28;20097;-77
2022/05/31 03:01:21;;;;;;;24.25;21.17;;;;;;;13.55;nan;99538.50;4961735;28;20115;-77
2022/05/31 03:04:07;;;;;;;25.60;21.23;;;;;;;13.51;nan;99533.50;4964179;28;20498;-77
2022/05/31 03:06:51;;;;;;;24.17;21.15;;;;;;;13.48;nan;99539.13;4964675;28;20105;-77
2022/05/31 03:09:18;;;;;;;25.10;22.23;;;;;;;13.41;nan;99539.94;4962842;28;20055;-76
2022/05/31 03:11:54;;;;;;;23.25;20.85;;;;;;;13.41;nan;99537.28;4964320;28;20034;-76
2022/05/31 03:14:35;;;;;;;25.02;21.23;;;;;;;13.39;nan;99545.38;4976658;28;20039;-77
2022/05/31 03:17:10;;;;;;;26.33;23.33;;;;;;;13.41;nan;99545.22;4960884;28;20061;-77
2022/05/31 03:19:42;;;;;;;26.73;22.98;;;;;;;13.47;nan;99541.94;4958793;28;20070;-77
2022/05/31 03:22:13;;;;;;;25.70;22.88;;;;;;;13.53;nan;99542.13;4960166;28;20031;-76
2022/05/31 03:24:48;;;;;;;27.95;23.55;;;;;;;13.55;nan;99538.50;4958622;28;20027;-77
2022/05/31 03:27:14;;;;;;;26.42;23.17;;;;;;;13.52;nan;99540.47;4963216;28;20399;-76
2022/05/31 03:29:45;;;;;;;26.17;22.20;;;;;;;13.49;nan;99548.72;4958977;28;20129;-77
2022/05/31 03:32:11;;;;;;;24.83;21.65;;;;;;;13.46;nan;99550.88;4963421;28;20128;-77
2022/05/31 03:34:37;;;;;;;25.02;21.77;;;;;;;13.45;nan;99550.03;4958722;28;20377;-76
2022/05/31 03:37:04;;;;;;;26.45;22.67;;;;;;;13.42;nan;99547.72;4961717;28;20149;-77
2022/05/31 03:39:29;;;;;;;29.45;25.08;;;;;;;13.37;nan;99552.66;4958955;28;20039;-76
2022/05/31 03:41:55;;;;;;;29.20;24.73;;;;;;;13.31;nan;99553.28;4959994;28;20038;-77
2022/05/31 03:44:20;;;;;;;27.65;24.15;;;;;;;13.29;nan;99550.00;4960100;28;20027;-77
2022/05/31 03:47:04;;;;;;;28.47;25.27;;;;;;;13.36;nan;99551.03;4959321;28;20399;-77
2022/05/31 03:50:05;;;;;;;29.33;26.13;;;;;;;13.41;nan;99551.38;4958811;28;20341;-76
2022/05/31 03:52:31;;;;;;;35.22;27.17;;;;;;;13.45;nan;99555.34;4968980;28;20031;-76
2022/05/31 03:54:58;;;;;;;33.45;26.88;;;;;;;13.49;nan;99564.63;4961606;28;20126;-77
2022/05/31 03:57:51;;;;;;;32.28;27.58;;;;;;;13.36;nan;99568.75;4960971;28;20047;-76
2022/05/31 04:00:42;;;;;;;28.60;25.50;;;;;;;13.15;nan;99565.66;4960020;28;20484;-77
2022/05/31 04:03:18;;;;;;;29.75;26.55;;;;;;;13.10;nan;99560.81;4960837;28;20066;-77
2022/05/31 04:05:46;;;;;;;29.55;26.30;;;;;;;13.09;nan;99564.44;4962293;28;20112;-77
2022/05/31 04:08:12;;;;;;;35.33;26.58;;;;;;;13.08;nan;99565.44;4965036;28;20683;-77
2022/05/31 04:10:41;;;;;;;34.88;27.35;;;;;;;13.07;nan;99574.38;4964588;28;20037;-76
2022/05/31 04:13:08;;;;;;;32.38;27.38;;;;;;;13.05;nan;99574.53;4963528;28;20033;-77
2022/05/31 04:16:05;;;;;;;29.42;26.25;;;;;;;13.07;nan;99569.91;4967706;28;20050;-77
2022/05/31 04:18:34;;;;;;;34.63;28.02;;;;;;;13.12;nan;99574.78;4965320;28;20035;-77
2022/05/31 04:21:02;;;;;;;30.95;27.60;;;;;;;13.11;nan;99573.06;4964449;28;20082;-77
2022/05/31 04:26:44;;;;;;;34.50;26.70;;;;;;;13.16;nan;99564.66;4980831;28;20803;-78
2022/05/31 04:29:28;;;;;;;28.10;24.88;;;;;;;13.19;nan;99570.50;4965783;28;20047;-77
2022/05/31 04:32:16;;;;;;;29.85;23.63;;;;;;;13.28;nan;99574.84;4966339;28;20037;-77
2022/05/31 04:35:05;;;;;;;24.38;21.83;;;;;;;13.34;nan;99574.19;4963368;28;20039;-77
2022/05/31 04:37:31;;;;;;;26.95;22.13;;;;;;;13.39;nan;99571.88;4965830;28;20471;-77
2022/05/31 04:40:19;;;;;;;28.58;22.17;;;;;;;13.42;nan;99578.72;4964532;28;20035;-76
2022/05/31 04:43:07;;;;;;;22.65;20.27;;;;;;;13.33;nan;99583.13;4961708;28;20499;-77
2022/05/31 04:45:45;;;;;;;22.33;20.02;;;;;;;13.41;nan;99601.72;4967343;28;20089;-76
2022/05/31 04:48:36;;;;;;;21.63;19.33;;;;;;;13.41;nan;99607.03;4967268;28;20153;-77
2022/05/31 04:51:02;;;;;;;21.92;19.60;;;;;;;13.42;nan;99611.34;4961937;28;20047;-77
2022/05/31 04:53:35;;;;;;;22.00;19.73;;;;;;;13.45;nan;99610.19;4961317;28;20130;-76
2022/05/31 04:56:27;;;;;;;24.15;21.05;;;;;;;13.47;nan;99611.69;4965325;28;20039;-75
2022/05/31 04:58:57;;;;;;;24.70;22.20;;;;;;;13.49;nan;99614.16;4962516;28;20399;-77
2022/05/31 05:01:24;;;;;;;30.73;23.67;;;;;;;13.50;nan;99611.34;4979392;28;20031;-77
2022/05/31 05:03:54;;;;;;;27.23;23.40;;;;;;;13.46;nan;99604.72;4963006;28;20038;-75
2022/05/31 05:06:22;;;;;;;29.25;23.70;;;;;;;13.46;nan;99614.50;4978914;28;20038;-77
2022/05/31 05:08:51;;;;;;;;;;;;;;;13.57;nan;99616.03;4963482;28;20039;-76
2022/05/31 05:11:19;;;;;;;26.00;23.08;;;;;;;13.69;nan;99626.19;4961690;28;19914;-77
2022/05/31 05:13:57;;;;;;;25.60;22.80;;;;;;;13.80;nan;99625.03;4962386;28;20154;-77
2022/05/31 05:16:54;;;;;;;27.63;24.25;;;;;;;13.87;nan;99628.72;4966720;28;20063;-76
2022/05/31 05:19:21;;;;;;;32.13;24.30;;;;;;;13.87;nan;99620.75;4980464;28;20403;-77
2022/05/31 05:22:01;;;;;;;26.07;23.30;;;;;;;13.92;nan;99621.94;4963158;28;20085;-76
2022/05/31 05:24:27;;;;;;;27.05;24.08;;;;;;;14.02;nan;99624.44;4962853;28;20139;-77
2022/05/31 05:27:12;;;;;;;29.10;23.60;;;;;;;14.13;nan;99618.84;4962149;28;20499;-77
2022/05/31 05:32:43;;;;;;;29.73;25.63;;;;;;;14.20;nan;99619.81;4977661;28;20106;-77
2022/05/31 05:35:15;;;;;;;28.70;25.38;;;;;;;13.98;nan;99625.75;4963477;28;20387;-77
2022/05/31 05:37:47;;;;;;;30.17;24.70;;;;;;;14.11;nan;99626.13;4963446;28;20035;-77
2022/05/31 05:40:15;;;;;;;28.02;23.80;;;;;;;14.24;nan;99630.94;4961279;28;20031;-77
2022/05/31 05:42:47;;;;;;;26.75;23.27;;;;;;;14.32;nan;99633.59;4963894;28;20035;-77
2022/05/31 05:45:19;;;;;;;26.65;23.77;;;;;;;14.39;nan;99633.81;4961767;28;20047;-77
2022/05/31 05:47:45;;;;;;;28.85;25.73;;;;;;;14.32;nan;99636.25;4962035;28;20079;-77
2022/05/31 05:50:11;;;;;;;29.25;26.05;;;;;;;14.30;nan;99631.13;4976456;28;20059;-77
2022/05/31 05:52:54;;;;;;;29.40;25.92;;;;;;;14.39;nan;99633.81;4963336;28;20039;-77
2022/05/31 05:55:39;;;;;;;30.42;24.50;;;;;;;14.53;nan;99625.19;4965260;28;20070;-75
2022/05/31 05:58:23;;;;;;;30.27;25.13;;;;;;;14.65;nan;99613.25;4963413;28;20137;-77
2022/05/31 06:01:16;;;;;;;30.83;25.20;;;;;;;14.79;nan;99604.56;4965529;28;20093;-77
2022/05/31 06:04:00;;;;;;;31.30;26.73;;;;;;;14.98;nan;99609.53;4977823;28;20542;-77
2022/05/31 06:06:30;;;;;;;26.58;23.67;;;;;;;15.13;nan;99607.00;4961228;28;20058;-76
2022/05/31 06:09:05;;;;;;;28.60;23.55;;;;;;;15.28;nan;99607.13;4963704;28;20038;-76
2022/05/31 06:11:39;;;;;;;27.52;23.83;;;;;;;15.25;nan;99621.59;4960538;28;20034;-75
2022/05/31 06:14:27;;;;;;;34.10;26.85;;;;;;;15.29;nan;99628.22;4976281;28;20032;-77
2022/05/31 06:17:11;;;;;;;36.10;29.63;;;;;;;15.36;nan;99623.06;4961990;28;20047;-77
2022/05/31 06:19:38;;;;;;;36.97;30.75;;;;;;;15.49;nan;99618.03;4976287;28;20177;-76
2022/05/31 06:22:06;;;;;;;36.50;28.83;;;;;;;15.59;nan;99621.31;4961522;28;20085;-77
2022/05/31 06:24:42;;;;;;;30.27;26.15;;;;;;;15.49;nan;99612.69;4959829;28;20101;-76
2022/05/31 06:27:27;;;;;;;33.28;28.35;;;;;;;15.62;nan;99607.66;4960791;28;20557;-76
2022/05/31 06:29:53;;;;;;;35.03;28.20;;;;;;;15.73;nan;99609.94;4976901;28;20114;-76
2022/05/31 06:32:19;;;;;;;31.13;26.58;;;;;;;15.58;nan;99611.69;4961461;28;20487;-76
2022/05/31 06:34:46;;;;;;;32.42;27.15;;;;;;;15.77;nan;99616.59;4960191;28;20039;-76
2022/05/31 06:37:34;;;;;;;33.38;27.65;;;;;;;15.77;nan;99618.41;4960328;28;20395;-76
2022/05/31 06:40:00;;;;;;;31.00;27.65;;;;;;;15.69;nan;99613.13;4960493;28;20039;-76
2022/05/31 06:42:46;;;;;;;32.03;28.02;;;;;;;15.93;nan;99616.47;4972883;28;20058;-78
2022/05/31 06:45:30;;;;;;;30.67;26.90;;;;;;;16.24;nan;99615.63;4970181;28;20042;-77
2022/05/31 06:48:14;;;;;;;31.83;26.00;;;;;;;16.25;nan;99612.78;4962513;28;20046;-75
2022/05/31 06:51:07;;;;;;;30.45;27.25;;;;;;;16.51;nan;99628.38;4964415;28;20051;-76
2022/05/31 06:56:53;;;;;;;32.67;25.77;;;;;;;16.94;nan;99631.38;4963639;28;20038;-74
2022/05/31 06:59:24;;;;;;;30.55;25.40;;;;;;;17.13;nan;99630.84;4961039;28;20039;-77
2022/05/31 07:01:53;;;;;;;30.73;26.23;;;;;;;17.07;nan;99632.41;4961163;28;20027;-77
2022/05/31 07:04:19;;;;;;;32.85;26.65;;;;;;;17.20;nan;99637.09;4961559;28;20062;-77
2022/05/31 07:06:45;;;;;;;29.92;26.35;;;;;;;17.25;nan;99634.72;4962113;28;20077;-76
2022/05/31 07:09:29;;;;;;;30.80;26.13;;;;;;;17.40;nan;99632.88;4962848;28;20675;-77
2022/05/31 07:12:00;;;;;;;32.35;27.50;;;;;;;17.20;nan;99637.09;4959745;28;20031;-77
2022/05/31 07:14:59;;;;;;;29.63;26.52;;;;;;;17.38;nan;99637.56;4975736;28;20066;-77
2022/05/31 07:18:03;;;;;;;29.75;25.88;;;;;;;17.48;nan;99635.47;4977756;28;20054;-77
2022/05/31 07:20:28;;;;;;;32.67;24.88;;;;;;;17.55;nan;99631.00;4965511;28;20051;-77
2022/05/31 07:22:54;;;;;;;33.38;27.63;;;;;;;17.38;nan;99629.56;4960260;28;20035;-77
2022/05/31 07:25:26;;;;;;;28.80;25.33;;;;;;;17.56;nan;99621.16;4960810;28;20046;-77
2022/05/31 07:28:03;;;;;;;29.30;26.15;;;;;;;17.70;nan;99627.53;4959097;28;20129;-77
2022/05/31 07:30:29;;;;;;;32.80;26.05;;;;;;;17.73;nan;99632.53;4977093;28;20173;-77
2022/05/31 07:32:55;;;;;;;31.40;26.25;;;;;;;17.82;nan;99631.38;4959992;28;20026;-77
2022/05/31 07:35:21;;;;;;;29.13;26.00;;;;;;;17.92;nan;99635.41;4975950;28;20055;-77
2022/05/31 07:37:46;;;;;;;32.25;26.40;;;;;;;17.98;nan;99631.16;4961106;28;20066;-78
2022/05/31 07:40:15;;;;;;;27.80;24.52;;;;;;;18.04;nan;99630.41;4975359;28;20054;-78
2022/05/31 07:42:41;;;;;;;30.52;26.20;;;;;;;18.10;nan;99632.31;4961980;28;20034;-78
2022/05/31 07:45:07;;;;;;;27.98;24.20;;;;;;;18.18;nan;99628.72;4962271;28;20035;-77
2022/05/31 07:47:33;;;;;;;28.65;25.55;;;;;;;18.27;nan;99636.41;4958383;28;20145;-78
2022/05/31 07:49:59;;;;;;;31.25;24.80;;;;;;;18.40;nan;99631.19;4958985;28;20452;-77
2022/05/31 07:52:50;;;;;;;30.30;24.73;;;;;;;18.60;nan;99625.25;4961119;28;20508;-77
2022/05/31 07:55:37;;;;;;;27.92;24.83;;;;;;;18.71;nan;99630.06;4972160;28;20039;-76
2022/05/31 08:01:13;;;;;;;26.70;23.90;;;;;;;18.80;nan;99636.91;4959931;28;20042;-77
2022/05/31 08:03:39;;;;;;;30.77;25.20;;;;;;;18.87;nan;99639.63;4965810;28;20131;-78
2022/05/31 08:06:14;;;;;;;25.40;22.65;;;;;;;18.90;nan;99645.44;4959785;28;20423;-77
2022/05/31 08:08:40;;;;;;;29.25;24.27;;;;;;;18.86;nan;99641.47;4959652;28;20035;-78
2022/05/31 08:11:09;;;;;;;31.08;24.42;;;;;;;18.82;nan;99634.88;4963270;28;20050;-77
2022/05/31 08:13:35;;;;;;;27.90;24.92;;;;;;;18.89;nan;99635.75;4959607;28;20484;-77
2022/05/31 08:16:03;;;;;;;27.20;24.30;;;;;;;18.90;nan;99640.09;4962758;28;20039;-77
2022/05/31 08:18:29;;;;;;;30.60;24.40;;;;;;;18.84;nan;99640.88;4959259;28;20123;-77
2022/05/31 08:21:07;;;;;;;27.40;24.50;;;;;;;18.85;nan;99637.16;4961344;28;20026;-77
2022/05/31 08:23:33;;;;;;;27.08;23.45;;;;;;;18.87;nan;99634.28;4962798;28;20059;-77
2022/05/31 08:25:59;;;;;;;25.88;21.92;;;;;;;18.99;nan;99630.88;4960894;28;20489;-77
2022/05/31 08:28:25;;;;;;;24.42;21.67;;;;;;;19.12;nan;99620.28;4960045;28;20125;-77
2022/05/31 08:30:55;;;;;;;22.63;20.20;;;;;;;19.28;nan;99629.00;4961624;28;20480;-77
2022/05/31 08:33:21;;;;;;;23.40;21.00;;;;;;;19.41;nan;99626.41;4960949;28;20546;-77
2022/05/31 08:35:47;;;;;;;24.42;19.95;;;;;;;19.50;nan;99625.25;4960692;28;20031;-77
2022/05/31 08:38:15;;;;;;;23.83;20.58;;;;;;;19.59;nan;99621.41;4962598;28;20490;-76
2022/05/31 08:40:49;;;;;;;24.42;20.70;;;;;;;19.67;nan;99620.41;4959873;28;20038;-75
2022/05/31 08:43:22;;;;;;;21.70;18.65;;;;;;;19.74;nan;99624.75;4962387;28;20031;-71
2022/05/31 08:45:57;;;;;;;19.83;16.15;;;;;;;19.73;nan;99623.13;4960828;28;20039;-70
2022/05/31 08:48:38;;;;;;;25.30;16.55;;;;;;;19.85;nan;99618.81;4959710;28;20075;-71
2022/05/31 08:57:02;;;;;;;19.88;17.30;;;;;;;20.26;nan;99617.91;4980474;28;20441;-69
2022/05/31 08:59:51;;;;;;;18.50;16.60;;;;;;;20.24;nan;99625.31;4962116;28;20059;-71
2022/05/31 09:02:22;;;;;;;22.85;16.75;;;;;;;20.18;nan;99618.09;4965794;28;20041;-78
2022/05/31 09:05:02;;;;;;;41.45;19.98;;;;;;;20.25;nan;99616.25;4963542;28;20110;-77
2022/05/31 09:07:42;;;;;;;72.88;19.15;;;;;;;20.38;nan;99613.63;4980439;28;20035;-77
2022/05/31 09:10:32;;;;;;;22.50;18.55;;;;;;;20.51;nan;99618.97;4962510;28;20047;-78
2022/05/31 09:13:18;;;;;;;20.52;17.77;;;;;;;20.59;nan;99624.16;4965023;28;20444;-78
2022/05/31 09:16:13;;;;;;;21.45;16.92;;;;;;;20.69;nan;99613.84;4962801;28;20054;-78
2022/05/31 09:18:39;;;;;;;22.75;17.00;;;;;;;20.80;nan;99615.91;4952341;28;20550;-78
2022/05/31 09:21:43;;;;;;;19.23;16.98;;;;;;;20.92;nan;99609.91;4962063;28;20035;-78
2022/05/31 09:24:14;;;;;;;18.40;16.52;;;;;;;20.90;nan;99610.13;4962079;28;20464;-78
2022/05/31 09:27:02;;;;;;;21.33;16.40;;;;;;;20.93;nan;99608.88;4962218;28;20077;-78
2022/05/31 09:29:33;;;;;;;19.27;17.38;;;;;;;21.02;nan;99610.31;4963241;28;20034;-77
2022/05/31 09:32:23;;;;;;;17.63;15.95;;;;;;;21.14;nan;99611.34;4964723;28;20035;-77
2022/05/31 09:35:04;;;;;;;18.42;16.65;;;;;;;21.22;nan;99613.81;4963023;28;20035;-77
2022/05/31 09:38:07;;;;;;;17.80;15.02;;;;;;;21.35;nan;99612.94;4961217;28;20053;-77
2022/05/31 09:40:47;;;;;;;17.10;15.20;;;;;;;21.54;nan;99601.34;4962980;28;20447;-78
2022/05/31 09:43:35;;;;;;;17.00;14.23;;;;;;;21.63;nan;99600.03;4962230;28;20035;-78
2022/05/31 09:46:06;;;;;;;16.67;14.98;;;;;;;21.58;nan;99605.25;4962440;28;20070;-79
2022/05/31 09:48:32;;;;;;;19.85;15.48;;;;;;;21.37;nan;99606.34;4964720;28;20035;-77
2022/05/31 09:51:13;;;;;;;15.77;13.85;;;;;;;21.28;nan;99602.22;4962619;28;20030;-77
2022/05/31 09:57:08;;;;;;;14.65;13.20;;;;;;;21.28;nan;99612.13;4963330;28;20463;-78
2022/05/31 10:00:14;;;;;;;17.13;15.32;;;;;;;21.29;nan;99617.31;4964452;28;20043;-77
2022/05/31 10:03:12;;;;;;;15.15;13.60;;;;;;;21.25;nan;99616.09;4962421;28;20058;-77
2022/05/31 10:05:40;;;;;;;14.77;13.27;;;;;;;21.29;nan;99611.94;4961204;28;20069;-76
2022/05/31 10:08:30;;;;;;;14.88;12.32;;;;;;;21.33;nan;99610.47;4976522;28;20035;-78
2022/05/31 10:10:55;;;;;;;14.50;12.88;;;;;;;21.38;nan;99612.56;4964365;28;20042;-78
2022/05/31 10:13:35;;;;;;;14.52;13.10;;;;;;;21.34;nan;99612.13;4962967;28;20027;-78
2022/05/31 10:16:14;;;;;;;14.75;13.25;;;;;;;21.24;nan;99611.75;4971146;28;20035;-78
2022/05/31 10:18:52;;;;;;;13.98;12.20;;;;;;;21.14;nan;99606.78;4977073;28;20513;-78
2022/05/31 10:21:30;;;;;;;12.43;11.15;;;;;;;21.06;nan;99604.31;4965195;28;20043;-78
2022/05/31 10:24:07;;;;;;;13.15;11.95;;;;;;;21.04;nan;99605.56;4962307;28;20655;-78
2022/05/31 10:27:11;;;;;;;14.90;12.73;;;;;;;21.05;nan;99599.16;4967021;28;20049;-79
2022/05/31 10:30:15;;;;;;;12.35;11.18;;;;;;;21.08;nan;99601.44;4962401;28;20058;-78
2022/05/31 10:33:22;;;;;;;11.18;9.98;;;;;;;21.16;nan;99598.53;4964565;28;20031;-78
2022/05/31 10:36:23;;;;;;;12.32;11.10;;;;;;;21.28;nan;99596.03;4961811;28;20039;-78
2022/05/31 10:38:50;;;;;;;11.38;10.23;;;;;;;21.40;nan;99589.81;4964142;28;20043;-78
2022/05/31 10:41:29;;;;;;;16.20;9.80;;;;;;;21.47;nan;99587.94;4960320;28;20505;-78
2022/05/31 10:44:14;;;;;;;10.80;9.70;;;;;;;21.56;nan;99583.97;4962143;28;20491;-77
2022/05/31 10:46:44;;;;;;;10.88;9.98;;;;;;;21.69;nan;99582.25;4975696;28;20051;-78
2022/05/31 10:49:23;;;;;;;14.02;10.48;;;;;;;21.82;nan;99593.78;4961229;28;20109;-77
2022/05/31 10:52:08;;;;;;;10.73;9.73;;;;;;;21.90;nan;99596.22;4976866;28;20031;-77
2022/05/31 10:54:52;;;;;;;9.00;8.30;;;;;;;21.99;nan;99586.06;4975445;28;20038;-77
2022/05/31 10:57:27;;;;;;;10.50;9.45;;;;;;;22.11;nan;99580.81;4961634;28;20102;-78
2022/05/31 11:00:12;;;;;;;10.52;7.82;;;;;;;22.26;nan;99584.88;4962165;28;20031;-78
2022/05/31 11:03:05;;;;;;;9.60;8.75;;;;;;;22.40;nan;99586.41;4960283;28;20039;-79
2022/05/31 11:05:47;;;;;;;10.30;9.15;;;;;;;22.48;nan;99581.81;4962829;28;20464;-78
2022/05/31 11:11:48;;;;;;;8.23;7.43;;;;;;;22.73;nan;99580.81;4962781;28;20066;-78
2022/05/31 11:14:43;;;;;;;8.73;7.93;;;;;;;22.84;nan;99576.56;4960670;28;20062;-79
2022/05/31 11:17:46;;;;;;;9.23;8.52;;;;;;;22.94;nan;99571.50;4960197;28;20110;-79
2022/05/31 11:20:19;;;;;;;7.82;7.03;;;;;;;23.02;nan;99568.53;4960437;28;20031;-78
2022/05/31 11:22:47;;;;;;;9.18;8.20;;;;;;;22.86;nan;99569.06;4962820;28;20479;-78
2022/05/31 11:25:37;;;;;;;8.60;7.90;;;;;;;22.76;nan;99560.69;4960475;28;20435;-77
2022/05/31 11:28:11;;;;;;;7.70;7.10;;;;;;;22.82;nan;99573.25;4960518;28;20135;-78
2022/05/31 11:30:57;;;;;;;8.32;7.63;;;;;;;22.94;nan;99565.28;4974927;28;20031;-78
2022/05/31 11:33:43;;;;;;;8.98;8.13;;;;;;;23.03;nan;99559.38;4961712;28;20050;-79
2022/05/31 11:36:31;;;;;;;8.07;7.38;;;;;;;22.99;nan;99560.88;4959994;28;20031;-79
2022/05/31 11:39:02;;;;;;;10.15;9.02;;;;;;;22.99;nan;99563.56;4962342;28;20219;-79
2022/05/31 11:41:47;;;;;;;8.68;7.97;;;;;;;22.87;nan;99562.66;4960875;28;20114;-78
2022/05/31 11:44:37;;;;;;;9.23;8.40;;;;;;;22.83;nan;99566.84;4960447;28;20031;-79
2022/05/31 11:47:22;;;;;;;11.93;8.40;;;;;;;22.82;nan;99571.41;4960161;28;20059;-79
2022/05/31 11:49:58;;;;;;;8.07;7.38;;;;;;;22.95;nan;99567.75;4960613;28;20031;-79
2022/05/31 11:52:32;;;;;;;7.60;7.00;;;;;;;23.08;nan;99573.00;4961528;28;20086;-79
2022/05/31 11:55:30;;;;;;;7.68;6.90;;;;;;;23.17;nan;99574.34;4960945;28;20031;-79
2022/05/31 11:58:01;;;;;;;8.95;8.05;;;;;;;23.17;nan;99571.66;4962073;28;20035;-79
2022/05/31 12:00:36;;;;;;;7.32;6.68;;;;;;;23.19;nan;99574.97;4960694;28;20507;-78
2022/05/31 12:03:18;;;;;;;8.65;7.32;;;;;;;23.13;nan;99569.63;4961855;28;20035;-78
2022/05/31 12:05:50;;;;;;;8.32;7.43;;;;;;;23.07;nan;99568.66;4959885;28;20066;-78
2022/05/31 12:08:23;;;;;;;8.45;7.63;;;;;;;23.01;nan;99566.88;4962606;28;20485;-78
2022/05/31 12:10:55;;;;;;;9.10;7.97;;;;;;;23.07;nan;99560.59;4960907;28;20488;-78
2022/05/31 12:13:22;;;;;;;8.10;6.57;;;;;;;23.16;nan;99564.63;4961635;28;20030;-78
2022/05/31 12:15:50;;;;;;;7.38;6.75;;;;;;;23.33;nan;99548.69;4960488;28;20074;-79
2022/05/31 12:18:39;;;;;;;7.25;6.55;;;;;;;23.56;nan;99553.44;4959840;28;20047;-79
2022/05/31 12:21:30;;;;;;;9.07;6.38;;;;;;;23.54;nan;99550.97;4961858;28;20033;-79
2022/05/31 12:24:18;;;;;;;6.32;5.68;;;;;;;23.89;nan;99543.03;4966506;28;20027;-78
2022/05/31 12:26:55;;;;;;;6.97;5.32;;;;;;;24.16;nan;99548.00;4965179;28;20035;-77
2022/05/31 12:29:32;;;;;;;8.35;6.25;;;;;;;24.20;nan;99541.16;4964582;28;20046;-79
2022/05/31 12:32:35;;;;;;;6.10;5.60;;;;;;;24.35;nan;99536.13;4967735;28;20429;-79
2022/05/31 12:35:03;;;;;;;5.40;4.90;;;;;;;24.59;nan;99543.19;4982968;28;20077;-79
2022/05/31 12:37:52;;;;;;;5.15;4.75;;;;;;;25.02;nan;99547.44;4966438;28;20035;-79
2022/05/31 12:40:24;;;;;;;6.47;5.87;;;;;;;25.58;nan;99546.75;4964224;28;20024;-79
2022/05/31 12:42:51;;;;;;;6.63;5.93;;;;;;;25.55;nan;99548.03;4965313;28;20111;-79
2022/05/31 12:45:19;;;;;;;9.85;7.50;;;;;;;25.33;nan;99548.94;4964107;28;20031;-79